sensor_id;sensor_type;location;lat;lon;timestamp;P1;durP1;ratioP1;P2;durP2;ratioP2
19643;SDS011;9970;-36.854;174.870;2022-12-18T00:00:12;22.70;;;22.10;;
19643;SDS011;9970;-36.854;174.870;2022-12-18T00:02:46;23.00;;;22.40;;
19643;SDS011;9970;-36.854;174.870;2022-12-18T00:05:19;23.43;;;22.83;;
19643;SDS011;9970;-36.854;174.870;2022-12-18T00:07:53;22.27;;;21.70;;
19643;SDS011;9970;-36.854;174.870;2022-12-18T00:10:30;22.40;;;21.80;;
19643;SDS011;9970;-36.854;174.870;2022-12-18T00:13:03;22.30;;;21.70;;
19643;SDS011;9970;-36.854;174.870;2022-12-18T00:15:37;22.00;;;21.50;;
19643;SDS011;9970;-36.854;174.870;2022-12-18T00:18:10;21.80;;;21.30;;
19643;SDS011;9970;-36.854;174.870;2022-12-18T00:20:44;22.40;;;21.80;;
19643;SDS011;9970;-36.854;174.870;2022-12-18T00:23:17;22.07;;;21.47;;
19643;SDS011;9970;-36.854;174.870;2022-12-18T00:25:50;20.60;;;20.10;;
19643;SDS011;9970;-36.854;174.870;2022-12-18T00:28:23;20.60;;;20.10;;
19643;SDS011;9970;-36.854;174.870;2022-12-18T00:31:02;20.83;;;20.33;;
19643;SDS011;9970;-36.854;174.870;2022-12-18T00:33:37;19.53;;;19.13;;
19643;SDS011;9970;-36.854;174.870;2022-12-18T00:36:10;19.60;;;19.20;;
19643;SDS011;9970;-36.854;174.870;2022-12-18T00:38:45;19.43;;;19.03;;
19643;SDS011;9970;-36.854;174.870;2022-12-18T00:41:18;18.80;;;18.40;;
19643;SDS011;9970;-36.854;174.870;2022-12-18T00:44:09;18.90;;;18.50;;
19643;SDS011;9970;-36.854;174.870;2022-12-18T00:46:43;19.70;;;19.30;;
19643;SDS011;9970;-36.854;174.870;2022-12-18T00:49:17;19.00;;;18.60;;
19643;SDS011;9970;-36.854;174.870;2022-12-18T00:51:53;19.37;;;18.97;;
19643;SDS011;9970;-36.854;174.870;2022-12-18T00:54:31;19.40;;;19.00;;
19643;SDS011;9970;-36.854;174.870;2022-12-18T00:57:04;19.40;;;19.00;;
19643;SDS011;9970;-36.854;174.870;2022-12-18T00:59:37;19.47;;;19.07;;
19643;SDS011;9970;-36.854;174.870;2022-12-18T01:02:10;19.20;;;18.80;;
19643;SDS011;9970;-36.854;174.870;2022-12-18T01:04:43;19.60;;;19.20;;
19643;SDS011;9970;-36.854;174.870;2022-12-18T01:07:16;19.30;;;18.90;;
19643;SDS011;9970;-36.854;174.870;2022-12-18T01:09:49;18.60;;;18.20;;
19643;SDS011;9970;-36.854;174.870;2022-12-18T01:12:22;18.13;;;17.73;;
19643;SDS011;9970;-36.854;174.870;2022-12-18T01:14:55;19.07;;;18.67;;
19643;SDS011;9970;-36.854;174.870;2022-12-18T01:17:28;18.63;;;18.23;;
19643;SDS011;9970;-36.854;174.870;2022-12-18T01:20:01;18.33;;;17.93;;
19643;SDS011;9970;-36.854;174.870;2022-12-18T01:22:35;19.70;;;19.30;;
19643;SDS011;9970;-36.854;174.870;2022-12-18T01:25:08;20.60;;;20.10;;
19643;SDS011;9970;-36.854;174.870;2022-12-18T01:27:41;19.63;;;19.23;;
19643;SDS011;9970;-36.854;174.870;2022-12-18T01:30:14;20.10;;;19.60;;
19643;SDS011;9970;-36.854;174.870;2022-12-18T01:32:47;20.07;;;19.57;;
19643;SDS011;9970;-36.854;174.870;2022-12-18T01:35:20;19.90;;;19.40;;
19643;SDS011;9970;-36.854;174.870;2022-12-18T01:37:56;19.80;;;19.30;;
19643;SDS011;9970;-36.854;174.870;2022-12-18T01:40:29;19.50;;;19.10;;
19643;SDS011;9970;-36.854;174.870;2022-12-18T01:43:02;20.50;;;20.00;;
19643;SDS011;9970;-36.854;174.870;2022-12-18T01:45:35;19.20;;;18.80;;
19643;SDS011;9970;-36.854;174.870;2022-12-18T01:48:08;18.90;;;18.50;;
19643;SDS011;9970;-36.854;174.870;2022-12-18T01:50:42;19.10;;;18.70;;
19643;SDS011;9970;-36.854;174.870;2022-12-18T01:53:21;19.20;;;18.80;;
19643;SDS011;9970;-36.854;174.870;2022-12-18T01:55:50;19.37;;;18.97;;
19643;SDS011;9970;-36.854;174.870;2022-12-18T01:58:30;19.00;;;18.60;;
19643;SDS011;9970;-36.854;174.870;2022-12-18T02:01:05;18.87;;;18.47;;
19643;SDS011;9970;-36.854;174.870;2022-12-18T02:03:40;18.80;;;18.40;;
19643;SDS011;9970;-36.854;174.870;2022-12-18T02:06:23;18.60;;;18.20;;
19643;SDS011;9970;-36.854;174.870;2022-12-18T02:09:10;18.50;;;18.10;;
19643;SDS011;9970;-36.854;174.870;2022-12-18T02:14:38;18.67;;;18.27;;
19643;SDS011;9970;-36.854;174.870;2022-12-18T02:17:35;18.20;;;17.80;;
19643;SDS011;9970;-36.854;174.870;2022-12-18T02:20:24;18.30;;;17.90;;
19643;SDS011;9970;-36.854;174.870;2022-12-18T02:28:41;18.07;;;17.67;;
19643;SDS011;9970;-36.854;174.870;2022-12-18T02:31:14;18.40;;;18.00;;
19643;SDS011;9970;-36.854;174.870;2022-12-18T02:33:48;18.73;;;18.33;;
19643;SDS011;9970;-36.854;174.870;2022-12-18T02:36:22;18.50;;;18.10;;
19643;SDS011;9970;-36.854;174.870;2022-12-18T02:38:57;17.90;;;17.50;;
19643;SDS011;9970;-36.854;174.870;2022-12-18T02:41:32;18.10;;;17.70;;
19643;SDS011;9970;-36.854;174.870;2022-12-18T02:44:10;16.80;;;16.50;;
19643;SDS011;9970;-36.854;174.870;2022-12-18T02:46:44;17.40;;;17.10;;
19643;SDS011;9970;-36.854;174.870;2022-12-18T03:00:41;16.50;;;16.20;;
19643;SDS011;9970;-36.854;174.870;2022-12-18T03:03:30;16.90;;;16.60;;
19643;SDS011;9970;-36.854;174.870;2022-12-18T03:06:13;17.80;;;17.40;;
19643;SDS011;9970;-36.854;174.870;2022-12-18T03:09:00;17.50;;;17.20;;
19643;SDS011;9970;-36.854;174.870;2022-12-18T03:11:38;17.30;;;17.00;;
19643;SDS011;9970;-36.854;174.870;2022-12-18T03:14:29;17.50;;;17.13;;
19643;SDS011;9970;-36.854;174.870;2022-12-18T03:17:04;16.93;;;16.63;;
19643;SDS011;9970;-36.854;174.870;2022-12-18T03:19:39;16.13;;;15.83;;
19643;SDS011;9970;-36.854;174.870;2022-12-18T03:22:13;16.20;;;15.90;;
19643;SDS011;9970;-36.854;174.870;2022-12-18T03:24:47;17.17;;;16.87;;
19643;SDS011;9970;-36.854;174.870;2022-12-18T03:27:22;16.90;;;16.60;;
19643;SDS011;9970;-36.854;174.870;2022-12-18T03:30:01;16.80;;;16.50;;
19643;SDS011;9970;-36.854;174.870;2022-12-18T03:32:47;16.70;;;16.40;;
19643;SDS011;9970;-36.854;174.870;2022-12-18T03:35:29;16.63;;;16.33;;
19643;SDS011;9970;-36.854;174.870;2022-12-18T03:38:02;16.60;;;16.30;;
19643;SDS011;9970;-36.854;174.870;2022-12-18T03:43:37;16.63;;;16.33;;
19643;SDS011;9970;-36.854;174.870;2022-12-18T03:48:59;17.20;;;16.90;;
19643;SDS011;9970;-36.854;174.870;2022-12-18T03:51:39;16.40;;;16.10;;
19643;SDS011;9970;-36.854;174.870;2022-12-18T03:54:15;15.63;;;15.33;;
19643;SDS011;9970;-36.854;174.870;2022-12-18T03:56:51;15.63;;;15.33;;
19643;SDS011;9970;-36.854;174.870;2022-12-18T03:59:23;14.83;;;14.63;;
19643;SDS011;9970;-36.854;174.870;2022-12-18T04:01:58;15.73;;;15.43;;
19643;SDS011;9970;-36.854;174.870;2022-12-18T04:04:33;15.63;;;15.33;;
19643;SDS011;9970;-36.854;174.870;2022-12-18T04:07:11;15.23;;;14.93;;
19643;SDS011;9970;-36.854;174.870;2022-12-18T04:09:45;15.77;;;15.47;;
19643;SDS011;9970;-36.854;174.870;2022-12-18T04:12:19;16.43;;;16.13;;
19643;SDS011;9970;-36.854;174.870;2022-12-18T04:14:54;17.17;;;16.87;;
19643;SDS011;9970;-36.854;174.870;2022-12-18T04:17:27;16.43;;;16.13;;
19643;SDS011;9970;-36.854;174.870;2022-12-18T04:20:00;16.10;;;15.80;;
19643;SDS011;9970;-36.854;174.870;2022-12-18T04:22:33;16.40;;;16.10;;
19643;SDS011;9970;-36.854;174.870;2022-12-18T04:25:06;16.03;;;15.73;;
19643;SDS011;9970;-36.854;174.870;2022-12-18T04:27:39;15.50;;;15.20;;
19643;SDS011;9970;-36.854;174.870;2022-12-18T04:30:12;15.10;;;14.80;;
19643;SDS011;9970;-36.854;174.870;2022-12-18T04:32:45;15.80;;;15.50;;
19643;SDS011;9970;-36.854;174.870;2022-12-18T04:35:19;15.73;;;15.43;;
19643;SDS011;9970;-36.854;174.870;2022-12-18T04:37:52;14.90;;;14.70;;
19643;SDS011;9970;-36.854;174.870;2022-12-18T04:40:25;15.00;;;14.80;;
19643;SDS011;9970;-36.854;174.870;2022-12-18T04:42:58;15.27;;;14.97;;
19643;SDS011;9970;-36.854;174.870;2022-12-18T04:45:31;14.90;;;14.70;;
19643;SDS011;9970;-36.854;174.870;2022-12-18T04:48:04;15.57;;;15.27;;
19643;SDS011;9970;-36.854;174.870;2022-12-18T04:50:38;15.30;;;15.00;;
19643;SDS011;9970;-36.854;174.870;2022-12-18T04:53:11;15.80;;;15.50;;
19643;SDS011;9970;-36.854;174.870;2022-12-18T04:55:44;16.10;;;15.80;;
19643;SDS011;9970;-36.854;174.870;2022-12-18T04:58:19;16.07;;;15.77;;
19643;SDS011;9970;-36.854;174.870;2022-12-18T05:00:52;15.70;;;15.40;;
19643;SDS011;9970;-36.854;174.870;2022-12-18T05:03:25;15.00;;;14.73;;
19643;SDS011;9970;-36.854;174.870;2022-12-18T05:05:58;14.00;;;13.80;;
19643;SDS011;9970;-36.854;174.870;2022-12-18T05:08:31;13.40;;;13.20;;
19643;SDS011;9970;-36.854;174.870;2022-12-18T05:11:08;13.17;;;12.97;;
19643;SDS011;9970;-36.854;174.870;2022-12-18T05:13:46;13.30;;;13.10;;
19643;SDS011;9970;-36.854;174.870;2022-12-18T05:16:19;13.40;;;13.20;;
19643;SDS011;9970;-36.854;174.870;2022-12-18T05:18:52;13.90;;;13.70;;
19643;SDS011;9970;-36.854;174.870;2022-12-18T05:21:25;13.90;;;13.70;;
19643;SDS011;9970;-36.854;174.870;2022-12-18T05:24:02;15.60;;;15.30;;
19643;SDS011;9970;-36.854;174.870;2022-12-18T05:26:36;15.40;;;15.10;;
19643;SDS011;9970;-36.854;174.870;2022-12-18T05:29:10;15.30;;;15.00;;
19643;SDS011;9970;-36.854;174.870;2022-12-18T05:31:43;16.30;;;16.00;;
19643;SDS011;9970;-36.854;174.870;2022-12-18T05:34:16;16.40;;;16.10;;
19643;SDS011;9970;-36.854;174.870;2022-12-18T05:36:49;16.27;;;15.97;;
19643;SDS011;9970;-36.854;174.870;2022-12-18T05:39:22;16.10;;;15.80;;
19643;SDS011;9970;-36.854;174.870;2022-12-18T05:41:55;15.80;;;15.50;;
19643;SDS011;9970;-36.854;174.870;2022-12-18T05:44:28;15.20;;;14.90;;
19643;SDS011;9970;-36.854;174.870;2022-12-18T05:47:01;14.60;;;14.40;;
19643;SDS011;9970;-36.854;174.870;2022-12-18T05:49:34;14.30;;;14.10;;
19643;SDS011;9970;-36.854;174.870;2022-12-18T05:52:07;14.67;;;14.47;;
19643;SDS011;9970;-36.854;174.870;2022-12-18T05:54:44;15.30;;;15.00;;
19643;SDS011;9970;-36.854;174.870;2022-12-18T05:57:17;15.33;;;15.03;;
19643;SDS011;9970;-36.854;174.870;2022-12-18T05:59:50;14.40;;;14.20;;
19643;SDS011;9970;-36.854;174.870;2022-12-18T06:02:23;14.00;;;13.80;;
19643;SDS011;9970;-36.854;174.870;2022-12-18T06:04:56;13.70;;;13.50;;
19643;SDS011;9970;-36.854;174.870;2022-12-18T06:07:29;14.60;;;14.40;;
19643;SDS011;9970;-36.854;174.870;2022-12-18T06:10:03;14.20;;;14.00;;
19643;SDS011;9970;-36.854;174.870;2022-12-18T06:12:36;14.80;;;14.60;;
19643;SDS011;9970;-36.854;174.870;2022-12-18T06:15:09;14.70;;;14.50;;
19643;SDS011;9970;-36.854;174.870;2022-12-18T06:17:43;15.00;;;14.80;;
19643;SDS011;9970;-36.854;174.870;2022-12-18T06:20:16;15.30;;;15.00;;
19643;SDS011;9970;-36.854;174.870;2022-12-18T06:22:49;17.30;;;17.00;;
19643;SDS011;9970;-36.854;174.870;2022-12-18T06:25:22;17.70;;;17.30;;
19643;SDS011;9970;-36.854;174.870;2022-12-18T06:27:55;17.83;;;17.43;;
19643;SDS011;9970;-36.854;174.870;2022-12-18T06:30:28;16.70;;;16.40;;
19643;SDS011;9970;-36.854;174.870;2022-12-18T06:33:01;16.40;;;16.10;;
19643;SDS011;9970;-36.854;174.870;2022-12-18T06:35:35;16.10;;;15.80;;
19643;SDS011;9970;-36.854;174.870;2022-12-18T06:38:08;16.40;;;16.10;;
19643;SDS011;9970;-36.854;174.870;2022-12-18T06:40:41;16.00;;;15.70;;
19643;SDS011;9970;-36.854;174.870;2022-12-18T06:43:14;16.10;;;15.80;;
19643;SDS011;9970;-36.854;174.870;2022-12-18T06:45:47;16.20;;;15.90;;
19643;SDS011;9970;-36.854;174.870;2022-12-18T06:48:26;16.60;;;16.30;;
19643;SDS011;9970;-36.854;174.870;2022-12-18T06:51:01;16.30;;;16.00;;
19643;SDS011;9970;-36.854;174.870;2022-12-18T06:53:35;16.10;;;15.80;;
19643;SDS011;9970;-36.854;174.870;2022-12-18T06:56:09;16.30;;;16.00;;
19643;SDS011;9970;-36.854;174.870;2022-12-18T06:58:41;16.20;;;15.90;;
19643;SDS011;9970;-36.854;174.870;2022-12-18T07:01:18;16.10;;;15.80;;
19643;SDS011;9970;-36.854;174.870;2022-12-18T07:03:52;16.23;;;15.93;;
19643;SDS011;9970;-36.854;174.870;2022-12-18T07:06:26;15.70;;;15.40;;
19643;SDS011;9970;-36.854;174.870;2022-12-18T07:08:59;15.60;;;15.30;;
19643;SDS011;9970;-36.854;174.870;2022-12-18T07:11:34;15.40;;;15.10;;
19643;SDS011;9970;-36.854;174.870;2022-12-18T07:14:07;16.00;;;15.70;;
19643;SDS011;9970;-36.854;174.870;2022-12-18T07:16:40;16.17;;;15.87;;
19643;SDS011;9970;-36.854;174.870;2022-12-18T07:19:13;15.77;;;15.47;;
19643;SDS011;9970;-36.854;174.870;2022-12-18T07:21:47;16.30;;;16.00;;
19643;SDS011;9970;-36.854;174.870;2022-12-18T07:24:20;16.10;;;15.80;;
19643;SDS011;9970;-36.854;174.870;2022-12-18T07:26:53;16.33;;;16.03;;
19643;SDS011;9970;-36.854;174.870;2022-12-18T07:29:26;16.20;;;15.90;;
19643;SDS011;9970;-36.854;174.870;2022-12-18T07:31:59;16.70;;;16.40;;
19643;SDS011;9970;-36.854;174.870;2022-12-18T07:34:35;16.90;;;16.60;;
19643;SDS011;9970;-36.854;174.870;2022-12-18T07:37:08;16.40;;;16.10;;
19643;SDS011;9970;-36.854;174.870;2022-12-18T07:39:41;15.80;;;15.50;;
19643;SDS011;9970;-36.854;174.870;2022-12-18T07:42:15;15.80;;;15.50;;
19643;SDS011;9970;-36.854;174.870;2022-12-18T07:45:01;16.00;;;15.70;;
19643;SDS011;9970;-36.854;174.870;2022-12-18T07:47:35;16.17;;;15.87;;
19643;SDS011;9970;-36.854;174.870;2022-12-18T07:50:08;16.13;;;15.83;;
19643;SDS011;9970;-36.854;174.870;2022-12-18T07:52:44;16.10;;;15.80;;
19643;SDS011;9970;-36.854;174.870;2022-12-18T07:55:17;16.00;;;15.70;;
19643;SDS011;9970;-36.854;174.870;2022-12-18T07:57:50;16.17;;;15.87;;
19643;SDS011;9970;-36.854;174.870;2022-12-18T08:00:24;15.57;;;15.27;;
19643;SDS011;9970;-36.854;174.870;2022-12-18T08:03:07;15.10;;;14.80;;
19643;SDS011;9970;-36.854;174.870;2022-12-18T08:05:46;15.23;;;14.93;;
19643;SDS011;9970;-36.854;174.870;2022-12-18T08:08:18;16.70;;;16.40;;
19643;SDS011;9970;-36.854;174.870;2022-12-18T08:10:56;15.47;;;15.17;;
19643;SDS011;9970;-36.854;174.870;2022-12-18T08:13:31;15.00;;;14.80;;
19643;SDS011;9970;-36.854;174.870;2022-12-18T08:16:07;15.80;;;15.50;;
19643;SDS011;9970;-36.854;174.870;2022-12-18T08:18:41;15.50;;;15.20;;
19643;SDS011;9970;-36.854;174.870;2022-12-18T08:21:19;15.30;;;15.00;;
19643;SDS011;9970;-36.854;174.870;2022-12-18T08:24:04;14.60;;;14.40;;
19643;SDS011;9970;-36.854;174.870;2022-12-18T08:26:42;15.20;;;14.90;;
19643;SDS011;9970;-36.854;174.870;2022-12-18T08:29:20;15.30;;;15.00;;
19643;SDS011;9970;-36.854;174.870;2022-12-18T08:31:54;15.30;;;15.00;;
19643;SDS011;9970;-36.854;174.870;2022-12-18T08:34:36;15.40;;;15.10;;
19643;SDS011;9970;-36.854;174.870;2022-12-18T08:37:09;15.53;;;15.23;;
19643;SDS011;9970;-36.854;174.870;2022-12-18T08:39:52;17.40;;;17.10;;
19643;SDS011;9970;-36.854;174.870;2022-12-18T08:42:27;17.53;;;17.17;;
19643;SDS011;9970;-36.854;174.870;2022-12-18T08:45:18;16.93;;;16.63;;
19643;SDS011;9970;-36.854;174.870;2022-12-18T08:47:51;16.90;;;16.60;;
19643;SDS011;9970;-36.854;174.870;2022-12-18T08:50:24;17.00;;;16.70;;
19643;SDS011;9970;-36.854;174.870;2022-12-18T08:52:59;16.10;;;15.80;;
19643;SDS011;9970;-36.854;174.870;2022-12-18T08:55:32;16.30;;;16.00;;
19643;SDS011;9970;-36.854;174.870;2022-12-18T08:58:05;15.60;;;15.30;;
19643;SDS011;9970;-36.854;174.870;2022-12-18T09:00:38;15.70;;;15.40;;
19643;SDS011;9970;-36.854;174.870;2022-12-18T09:03:19;15.80;;;15.50;;
19643;SDS011;9970;-36.854;174.870;2022-12-18T09:05:49;15.80;;;15.50;;
19643;SDS011;9970;-36.854;174.870;2022-12-18T09:08:25;15.40;;;15.10;;
19643;SDS011;9970;-36.854;174.870;2022-12-18T09:11:02;16.10;;;15.80;;
19643;SDS011;9970;-36.854;174.870;2022-12-18T09:13:37;16.00;;;15.70;;
19643;SDS011;9970;-36.854;174.870;2022-12-18T09:16:12;16.10;;;15.80;;
19643;SDS011;9970;-36.854;174.870;2022-12-18T09:18:52;16.00;;;15.70;;
19643;SDS011;9970;-36.854;174.870;2022-12-18T09:21:33;15.77;;;15.47;;
19643;SDS011;9970;-36.854;174.870;2022-12-18T09:24:13;15.60;;;15.30;;
19643;SDS011;9970;-36.854;174.870;2022-12-18T09:26:47;16.37;;;16.07;;
19643;SDS011;9970;-36.854;174.870;2022-12-18T09:29:22;16.70;;;16.40;;
19643;SDS011;9970;-36.854;174.870;2022-12-18T09:31:55;16.43;;;16.13;;
19643;SDS011;9970;-36.854;174.870;2022-12-18T09:34:28;16.60;;;16.30;;
19643;SDS011;9970;-36.854;174.870;2022-12-18T09:37:02;16.70;;;16.40;;
19643;SDS011;9970;-36.854;174.870;2022-12-18T09:39:35;16.20;;;15.90;;
19643;SDS011;9970;-36.854;174.870;2022-12-18T09:42:20;15.40;;;15.10;;
19643;SDS011;9970;-36.854;174.870;2022-12-18T09:44:53;16.07;;;15.77;;
19643;SDS011;9970;-36.854;174.870;2022-12-18T09:47:30;15.50;;;15.20;;
19643;SDS011;9970;-36.854;174.870;2022-12-18T09:50:05;14.87;;;14.67;;
19643;SDS011;9970;-36.854;174.870;2022-12-18T09:52:41;14.60;;;14.40;;
19643;SDS011;9970;-36.854;174.870;2022-12-18T10:00:53;15.60;;;15.30;;
19643;SDS011;9970;-36.854;174.870;2022-12-18T10:03:26;15.70;;;15.40;;
19643;SDS011;9970;-36.854;174.870;2022-12-18T10:08:54;13.73;;;13.53;;
19643;SDS011;9970;-36.854;174.870;2022-12-18T10:11:56;14.33;;;14.13;;
19643;SDS011;9970;-36.854;174.870;2022-12-18T10:14:35;13.87;;;13.67;;
19643;SDS011;9970;-36.854;174.870;2022-12-18T10:17:26;14.17;;;13.97;;
19643;SDS011;9970;-36.854;174.870;2022-12-18T10:28:40;13.93;;;13.73;;
19643;SDS011;9970;-36.854;174.870;2022-12-18T10:31:17;13.70;;;13.50;;
19643;SDS011;9970;-36.854;174.870;2022-12-18T10:33:53;13.80;;;13.60;;
19643;SDS011;9970;-36.854;174.870;2022-12-18T10:36:25;13.80;;;13.60;;
19643;SDS011;9970;-36.854;174.870;2022-12-18T10:39:18;13.50;;;13.30;;
19643;SDS011;9970;-36.854;174.870;2022-12-18T10:41:52;13.40;;;13.20;;
19643;SDS011;9970;-36.854;174.870;2022-12-18T10:44:30;13.30;;;13.10;;
19643;SDS011;9970;-36.854;174.870;2022-12-18T10:47:03;13.07;;;12.87;;
19643;SDS011;9970;-36.854;174.870;2022-12-18T10:49:39;13.90;;;13.70;;
19643;SDS011;9970;-36.854;174.870;2022-12-18T10:52:21;13.80;;;13.60;;
19643;SDS011;9970;-36.854;174.870;2022-12-18T10:54:58;13.70;;;13.50;;
19643;SDS011;9970;-36.854;174.870;2022-12-18T10:57:34;14.27;;;14.07;;
19643;SDS011;9970;-36.854;174.870;2022-12-18T11:02:57;14.20;;;14.00;;
19643;SDS011;9970;-36.854;174.870;2022-12-18T11:05:31;14.20;;;14.00;;
19643;SDS011;9970;-36.854;174.870;2022-12-18T11:08:11;13.80;;;13.60;;
19643;SDS011;9970;-36.854;174.870;2022-12-18T11:10:41;14.00;;;13.80;;
19643;SDS011;9970;-36.854;174.870;2022-12-18T11:13:21;13.00;;;12.80;;
19643;SDS011;9970;-36.854;174.870;2022-12-18T11:15:51;13.50;;;13.30;;
19643;SDS011;9970;-36.854;174.870;2022-12-18T11:18:32;13.70;;;13.50;;
19643;SDS011;9970;-36.854;174.870;2022-12-18T11:21:11;13.10;;;12.90;;
19643;SDS011;9970;-36.854;174.870;2022-12-18T11:23:52;13.60;;;13.40;;
19643;SDS011;9970;-36.854;174.870;2022-12-18T11:26:33;13.60;;;13.40;;
19643;SDS011;9970;-36.854;174.870;2022-12-18T11:29:10;13.83;;;13.63;;
19643;SDS011;9970;-36.854;174.870;2022-12-18T11:31:45;13.50;;;13.30;;
19643;SDS011;9970;-36.854;174.870;2022-12-18T11:34:26;13.00;;;12.80;;
19643;SDS011;9970;-36.854;174.870;2022-12-18T11:36:57;13.20;;;13.00;;
19643;SDS011;9970;-36.854;174.870;2022-12-18T11:39:46;13.40;;;13.20;;
19643;SDS011;9970;-36.854;174.870;2022-12-18T11:50:41;12.90;;;12.70;;
19643;SDS011;9970;-36.854;174.870;2022-12-18T11:53:18;13.30;;;13.10;;
19643;SDS011;9970;-36.854;174.870;2022-12-18T12:01:25;13.00;;;12.80;;
19643;SDS011;9970;-36.854;174.870;2022-12-18T12:04:19;13.10;;;12.90;;
19643;SDS011;9970;-36.854;174.870;2022-12-18T12:06:59;13.40;;;13.20;;
19643;SDS011;9970;-36.854;174.870;2022-12-18T12:09:37;13.67;;;13.47;;
19643;SDS011;9970;-36.854;174.870;2022-12-18T12:12:24;13.40;;;13.20;;
19643;SDS011;9970;-36.854;174.870;2022-12-18T12:17:51;13.20;;;13.00;;
19643;SDS011;9970;-36.854;174.870;2022-12-18T12:26:06;13.00;;;12.80;;
19643;SDS011;9970;-36.854;174.870;2022-12-18T12:28:51;12.93;;;12.73;;
19643;SDS011;9970;-36.854;174.870;2022-12-18T12:34:26;12.70;;;12.50;;
19643;SDS011;9970;-36.854;174.870;2022-12-18T12:40:04;13.10;;;12.90;;
19643;SDS011;9970;-36.854;174.870;2022-12-18T12:42:39;12.30;;;12.20;;
19643;SDS011;9970;-36.854;174.870;2022-12-18T12:45:58;12.40;;;12.30;;
19643;SDS011;9970;-36.854;174.870;2022-12-18T12:51:28;12.10;;;12.00;;
19643;SDS011;9970;-36.854;174.870;2022-12-18T12:54:02;11.93;;;11.83;;
19643;SDS011;9970;-36.854;174.870;2022-12-18T12:56:48;12.10;;;12.00;;
19643;SDS011;9970;-36.854;174.870;2022-12-18T13:02:33;11.90;;;11.80;;
19643;SDS011;9970;-36.854;174.870;2022-12-18T13:08:21;12.90;;;12.70;;
19643;SDS011;9970;-36.854;174.870;2022-12-18T13:10:43;13.10;;;12.90;;
19643;SDS011;9970;-36.854;174.870;2022-12-18T13:13:17;12.50;;;12.40;;
19643;SDS011;9970;-36.854;174.870;2022-12-18T13:16:06;12.13;;;12.03;;
19643;SDS011;9970;-36.854;174.870;2022-12-18T13:18:40;11.90;;;11.80;;
19643;SDS011;9970;-36.854;174.870;2022-12-18T13:21:20;11.50;;;11.40;;
19643;SDS011;9970;-36.854;174.870;2022-12-18T13:23:54;11.63;;;11.53;;
19643;SDS011;9970;-36.854;174.870;2022-12-18T13:26:31;12.40;;;12.30;;
19643;SDS011;9970;-36.854;174.870;2022-12-18T13:29:05;12.80;;;12.60;;
19643;SDS011;9970;-36.854;174.870;2022-12-18T13:34:17;12.03;;;11.93;;
19643;SDS011;9970;-36.854;174.870;2022-12-18T13:36:53;12.60;;;12.40;;
19643;SDS011;9970;-36.854;174.870;2022-12-18T13:39:33;12.60;;;12.40;;
19643;SDS011;9970;-36.854;174.870;2022-12-18T13:44:42;12.20;;;12.10;;
19643;SDS011;9970;-36.854;174.870;2022-12-18T13:47:33;12.00;;;11.90;;
19643;SDS011;9970;-36.854;174.870;2022-12-18T13:50:23;12.70;;;12.50;;
19643;SDS011;9970;-36.854;174.870;2022-12-18T13:52:58;12.50;;;12.40;;
19643;SDS011;9970;-36.854;174.870;2022-12-18T13:55:31;12.10;;;12.00;;
19643;SDS011;9970;-36.854;174.870;2022-12-18T13:58:06;12.30;;;12.20;;
19643;SDS011;9970;-36.854;174.870;2022-12-18T14:00:43;12.63;;;12.50;;
19643;SDS011;9970;-36.854;174.870;2022-12-18T14:03:24;13.13;;;12.93;;
19643;SDS011;9970;-36.854;174.870;2022-12-18T14:06:06;12.30;;;12.20;;
19643;SDS011;9970;-36.854;174.870;2022-12-18T14:08:39;11.70;;;11.60;;
19643;SDS011;9970;-36.854;174.870;2022-12-18T14:11:20;12.90;;;12.70;;
19643;SDS011;9970;-36.854;174.870;2022-12-18T14:13:55;13.20;;;13.00;;
19643;SDS011;9970;-36.854;174.870;2022-12-18T14:16:29;12.80;;;12.60;;
19643;SDS011;9970;-36.854;174.870;2022-12-18T14:19:04;13.10;;;12.90;;
19643;SDS011;9970;-36.854;174.870;2022-12-18T14:21:40;12.80;;;12.60;;
19643;SDS011;9970;-36.854;174.870;2022-12-18T14:24:17;13.20;;;13.00;;
19643;SDS011;9970;-36.854;174.870;2022-12-18T14:26:51;12.20;;;12.10;;
19643;SDS011;9970;-36.854;174.870;2022-12-18T14:29:27;12.90;;;12.70;;
19643;SDS011;9970;-36.854;174.870;2022-12-18T14:32:20;12.07;;;11.97;;
19643;SDS011;9970;-36.854;174.870;2022-12-18T14:34:47;12.17;;;12.07;;
19643;SDS011;9970;-36.854;174.870;2022-12-18T14:37:25;12.60;;;12.40;;
19643;SDS011;9970;-36.854;174.870;2022-12-18T14:40:03;12.70;;;12.50;;
19643;SDS011;9970;-36.854;174.870;2022-12-18T14:42:38;12.57;;;12.40;;
19643;SDS011;9970;-36.854;174.870;2022-12-18T14:48:12;12.40;;;12.30;;
19643;SDS011;9970;-36.854;174.870;2022-12-18T14:50:42;12.50;;;12.30;;
19643;SDS011;9970;-36.854;174.870;2022-12-18T14:53:20;12.30;;;12.20;;
19643;SDS011;9970;-36.854;174.870;2022-12-18T14:55:55;12.30;;;12.20;;
19643;SDS011;9970;-36.854;174.870;2022-12-18T14:58:28;12.70;;;12.50;;
19643;SDS011;9970;-36.854;174.870;2022-12-18T15:01:01;12.67;;;12.50;;
19643;SDS011;9970;-36.854;174.870;2022-12-18T15:03:34;12.90;;;12.70;;
19643;SDS011;9970;-36.854;174.870;2022-12-18T15:06:24;13.10;;;12.90;;
19643;SDS011;9970;-36.854;174.870;2022-12-18T15:08:56;13.63;;;13.43;;
19643;SDS011;9970;-36.854;174.870;2022-12-18T15:17:06;12.70;;;12.50;;
19643;SDS011;9970;-36.854;174.870;2022-12-18T15:19:51;12.80;;;12.60;;
19643;SDS011;9970;-36.854;174.870;2022-12-18T15:22:26;13.00;;;12.80;;
19643;SDS011;9970;-36.854;174.870;2022-12-18T15:25:00;13.20;;;13.00;;
19643;SDS011;9970;-36.854;174.870;2022-12-18T15:27:35;13.17;;;12.97;;
19643;SDS011;9970;-36.854;174.870;2022-12-18T15:32:44;12.20;;;12.10;;
19643;SDS011;9970;-36.854;174.870;2022-12-18T15:35:18;11.70;;;11.60;;
19643;SDS011;9970;-36.854;174.870;2022-12-18T15:37:54;11.23;;;11.13;;
19643;SDS011;9970;-36.854;174.870;2022-12-18T15:40:27;11.50;;;11.40;;
19643;SDS011;9970;-36.854;174.870;2022-12-18T15:43:01;11.63;;;11.53;;
19643;SDS011;9970;-36.854;174.870;2022-12-18T15:45:52;11.40;;;11.30;;
19643;SDS011;9970;-36.854;174.870;2022-12-18T15:48:25;11.50;;;11.40;;
19643;SDS011;9970;-36.854;174.870;2022-12-18T15:50:58;12.03;;;11.93;;
19643;SDS011;9970;-36.854;174.870;2022-12-18T15:53:32;10.90;;;10.80;;
19643;SDS011;9970;-36.854;174.870;2022-12-18T15:56:10;10.73;;;10.63;;
19643;SDS011;9970;-36.854;174.870;2022-12-18T15:59:02;10.80;;;10.70;;
19643;SDS011;9970;-36.854;174.870;2022-12-18T16:01:36;11.17;;;11.07;;
19643;SDS011;9970;-36.854;174.870;2022-12-18T16:04:14;11.10;;;11.00;;
19643;SDS011;9970;-36.854;174.870;2022-12-18T16:06:49;10.50;;;10.40;;
19643;SDS011;9970;-36.854;174.870;2022-12-18T16:09:23;10.70;;;10.60;;
19643;SDS011;9970;-36.854;174.870;2022-12-18T16:11:56;10.77;;;10.67;;
19643;SDS011;9970;-36.854;174.870;2022-12-18T16:14:29;10.73;;;10.63;;
19643;SDS011;9970;-36.854;174.870;2022-12-18T16:17:05;10.37;;;10.27;;
19643;SDS011;9970;-36.854;174.870;2022-12-18T16:19:38;10.50;;;10.40;;
19643;SDS011;9970;-36.854;174.870;2022-12-18T16:22:16;10.33;;;10.23;;
19643;SDS011;9970;-36.854;174.870;2022-12-18T16:24:54;10.60;;;10.50;;